sensor_id;sensor_type;location;lat;lon;timestamp;pressure;altitude;pressure_sealevel;temperature;humidity
49030;BME280;43337;52.070;4.508;2022-07-29T00:00:47;101886.91;;;17.74;56.63
49030;BME280;43337;52.070;4.508;2022-07-29T00:03:13;101904.38;;;17.79;56.38
49030;BME280;43337;52.070;4.508;2022-07-29T00:05:42;101918.03;;;17.89;56.49
49030;BME280;43337;52.070;4.508;2022-07-29T00:08:08;101926.03;;;17.89;56.58
49030;BME280;43337;52.070;4.508;2022-07-29T00:10:34;101888.97;;;17.69;56.61
49030;BME280;43337;52.070;4.508;2022-07-29T00:13:00;101914.97;;;17.81;56.83
49030;BME280;43337;52.070;4.508;2022-07-29T00:15:29;101878.75;;;17.61;56.89
49030;BME280;43337;52.070;4.508;2022-07-29T00:17:57;101901.06;;;17.74;56.85
49030;BME280;43337;52.070;4.508;2022-07-29T00:20:22;101879.59;;;17.62;56.87
49030;BME280;43337;52.070;4.508;2022-07-29T00:22:47;101889.03;;;17.67;56.83
49030;BME280;43337;52.070;4.508;2022-07-29T00:25:13;101864.72;;;17.57;56.76
49030;BME280;43337;52.070;4.508;2022-07-29T00:27:39;101882.44;;;17.58;57.24
49030;BME280;43337;52.070;4.508;2022-07-29T00:30:05;101905.81;;;17.69;57.23
49030;BME280;43337;52.070;4.508;2022-07-29T00:32:31;101878.22;;;17.54;57.34
49030;BME280;43337;52.070;4.508;2022-07-29T00:34:56;101899.00;;;17.64;57.33
49030;BME280;43337;52.070;4.508;2022-07-29T00:37:40;101875.72;;;17.51;57.37
49030;BME280;43337;52.070;4.508;2022-07-29T00:40:06;101892.97;;;17.60;57.38
49030;BME280;43337;52.070;4.508;2022-07-29T00:42:42;101885.50;;;17.51;57.53
49030;BME280;43337;52.070;4.508;2022-07-29T00:45:08;101881.41;;;17.45;57.99
49030;BME280;43337;52.070;4.508;2022-07-29T00:47:33;101858.06;;;17.33;57.57
49030;BME280;43337;52.070;4.508;2022-07-29T00:49:59;101859.03;;;17.32;57.87
49030;BME280;43337;52.070;4.508;2022-07-29T00:52:24;101870.97;;;17.41;58.09
49030;BME280;43337;52.070;4.508;2022-07-29T00:54:50;101882.94;;;17.49;58.10
49030;BME280;43337;52.070;4.508;2022-07-29T00:57:15;101858.06;;;17.33;58.17
49030;BME280;43337;52.070;4.508;2022-07-29T00:59:40;101888.44;;;17.46;58.07
49030;BME280;43337;52.070;4.508;2022-07-29T01:02:06;101866.16;;;17.31;58.10
49030;BME280;43337;52.070;4.508;2022-07-29T01:04:32;101886.78;;;17.44;58.21
49030;BME280;43337;52.070;4.508;2022-07-29T01:06:58;101842.94;;;17.18;58.41
49030;BME280;43337;52.070;4.508;2022-07-29T01:09:23;101852.56;;;17.20;58.47
49030;BME280;43337;52.070;4.508;2022-07-29T01:11:49;101855.22;;;17.20;58.72
49030;BME280;43337;52.070;4.508;2022-07-29T01:14:15;101864.78;;;17.24;58.86
49030;BME280;43337;52.070;4.508;2022-07-29T01:16:51;101877.66;;;17.32;58.74
49030;BME280;43337;52.070;4.508;2022-07-29T01:22:25;101857.19;;;17.17;58.76
49030;BME280;43337;52.070;4.508;2022-07-29T01:27:41;101876.44;;;17.22;59.31
49030;BME280;43337;52.070;4.508;2022-07-29T01:30:10;101864.47;;;17.13;59.42
49030;BME280;43337;52.070;4.508;2022-07-29T01:32:37;101860.44;;;17.06;59.37
49030;BME280;43337;52.070;4.508;2022-07-29T01:35:30;101879.44;;;17.16;59.60
49030;BME280;43337;52.070;4.508;2022-07-29T01:38:20;101870.66;;;17.14;59.47
49030;BME280;43337;52.070;4.508;2022-07-29T01:40:59;101867.31;;;17.10;59.58
49030;BME280;43337;52.070;4.508;2022-07-29T01:43:44;101861.13;;;17.09;59.57
49030;BME280;43337;52.070;4.508;2022-07-29T01:46:21;101853.81;;;16.97;59.70
49030;BME280;43337;52.070;4.508;2022-07-29T01:49:06;101865.16;;;17.01;59.66
49030;BME280;43337;52.070;4.508;2022-07-29T01:51:40;101845.22;;;16.92;59.93
49030;BME280;43337;52.070;4.508;2022-07-29T01:56:38;101852.94;;;16.97;60.38
49030;BME280;43337;52.070;4.508;2022-07-29T01:59:07;101843.56;;;16.90;60.62
49030;BME280;43337;52.070;4.508;2022-07-29T02:01:33;101828.09;;;16.80;60.20
49030;BME280;43337;52.070;4.508;2022-07-29T02:04:03;101840.06;;;16.89;60.52
49030;BME280;43337;52.070;4.508;2022-07-29T02:06:29;101835.03;;;16.83;60.68
49030;BME280;43337;52.070;4.508;2022-07-29T02:08:58;101822.94;;;16.77;60.80
49030;BME280;43337;52.070;4.508;2022-07-29T02:11:24;101834.28;;;16.81;60.89
49030;BME280;43337;52.070;4.508;2022-07-29T02:13:52;101829.97;;;16.78;60.95
49030;BME280;43337;52.070;4.508;2022-07-29T02:16:21;101812.81;;;16.67;60.75
49030;BME280;43337;52.070;4.508;2022-07-29T02:18:48;101845.69;;;16.83;60.92
49030;BME280;43337;52.070;4.508;2022-07-29T02:21:15;101821.59;;;16.69;61.01
49030;BME280;43337;52.070;4.508;2022-07-29T02:23:46;101836.16;;;16.79;61.27
49030;BME280;43337;52.070;4.508;2022-07-29T02:26:11;101796.03;;;16.49;61.04
49030;BME280;43337;52.070;4.508;2022-07-29T02:28:38;101814.88;;;16.62;61.20
49030;BME280;43337;52.070;4.508;2022-07-29T02:31:05;101834.72;;;16.72;61.23
49030;BME280;43337;52.070;4.508;2022-07-29T02:33:33;101794.31;;;16.48;61.46
49030;BME280;43337;52.070;4.508;2022-07-29T02:35:59;101840.00;;;16.73;61.29
49030;BME280;43337;52.070;4.508;2022-07-29T02:38:28;101779.72;;;16.39;61.33
49030;BME280;43337;52.070;4.508;2022-07-29T02:41:16;101845.34;;;16.72;61.27
49030;BME280;43337;52.070;4.508;2022-07-29T02:43:43;101834.81;;;16.70;61.33
49030;BME280;43337;52.070;4.508;2022-07-29T02:46:14;101806.75;;;16.47;61.50
49030;BME280;43337;52.070;4.508;2022-07-29T02:48:55;101813.56;;;16.53;61.74
49030;BME280;43337;52.070;4.508;2022-07-29T02:51:28;101836.91;;;16.64;61.28
49030;BME280;43337;52.070;4.508;2022-07-29T02:53:59;101783.56;;;16.33;61.69
49030;BME280;43337;52.070;4.508;2022-07-29T02:56:27;101789.38;;;16.40;61.73
49030;BME280;43337;52.070;4.508;2022-07-29T02:59:03;101807.94;;;16.42;61.77
49030;BME280;43337;52.070;4.508;2022-07-29T03:01:31;101839.50;;;16.65;61.70
49030;BME280;43337;52.070;4.508;2022-07-29T03:04:01;101818.09;;;16.51;61.70
49030;BME280;43337;52.070;4.508;2022-07-29T03:06:28;101795.81;;;16.36;61.72
49030;BME280;43337;52.070;4.508;2022-07-29T03:08:55;101834.44;;;16.60;61.51
49030;BME280;43337;52.070;4.508;2022-07-29T03:11:22;101818.88;;;16.53;61.62
49030;BME280;43337;52.070;4.508;2022-07-29T03:13:48;101796.34;;;16.43;61.63
49030;BME280;43337;52.070;4.508;2022-07-29T03:16:15;101792.28;;;16.35;61.68
49030;BME280;43337;52.070;4.508;2022-07-29T03:18:41;101822.44;;;16.52;61.68
49030;BME280;43337;52.070;4.508;2022-07-29T03:21:07;101816.63;;;16.45;61.60
49030;BME280;43337;52.070;4.508;2022-07-29T03:23:33;101804.63;;;16.36;61.73
49030;BME280;43337;52.070;4.508;2022-07-29T03:25:58;101784.34;;;16.18;61.84
49030;BME280;43337;52.070;4.508;2022-07-29T03:28:24;101790.31;;;16.22;61.96
49030;BME280;43337;52.070;4.508;2022-07-29T03:30:50;101826.75;;;16.37;61.97
49030;BME280;43337;52.070;4.508;2022-07-29T03:33:15;101801.50;;;16.28;61.67
49030;BME280;43337;52.070;4.508;2022-07-29T03:35:40;101817.41;;;16.30;61.96
49030;BME280;43337;52.070;4.508;2022-07-29T03:38:06;101826.84;;;16.35;62.02
49030;BME280;43337;52.070;4.508;2022-07-29T03:40:42;101828.66;;;16.35;62.08
49030;BME280;43337;52.070;4.508;2022-07-29T03:43:11;101822.63;;;16.31;62.14
49030;BME280;43337;52.070;4.508;2022-07-29T03:45:38;101811.53;;;16.23;62.46
49030;BME280;43337;52.070;4.508;2022-07-29T03:48:10;101794.16;;;16.16;62.40
49030;BME280;43337;52.070;4.508;2022-07-29T03:50:37;101792.69;;;16.10;62.32
49030;BME280;43337;52.070;4.508;2022-07-29T03:53:03;101807.16;;;16.22;62.62
49030;BME280;43337;52.070;4.508;2022-07-29T03:55:33;101827.22;;;16.28;62.57
49030;BME280;43337;52.070;4.508;2022-07-29T03:58:01;101821.06;;;16.27;62.60
49030;BME280;43337;52.070;4.508;2022-07-29T04:00:27;101828.19;;;16.27;62.54
49030;BME280;43337;52.070;4.508;2022-07-29T04:02:53;101809.41;;;16.13;62.64
49030;BME280;43337;52.070;4.508;2022-07-29T04:05:19;101819.78;;;16.17;62.80
49030;BME280;43337;52.070;4.508;2022-07-29T04:07:45;101819.66;;;16.20;62.69
49030;BME280;43337;52.070;4.508;2022-07-29T04:10:11;101800.00;;;16.05;62.67
49030;BME280;43337;52.070;4.508;2022-07-29T04:12:37;101800.88;;;16.06;62.64
49030;BME280;43337;52.070;4.508;2022-07-29T04:15:03;101793.94;;;16.03;62.66
49030;BME280;43337;52.070;4.508;2022-07-29T04:17:29;101805.28;;;16.07;62.46
49030;BME280;43337;52.070;4.508;2022-07-29T04:19:54;101821.75;;;16.14;62.63
49030;BME280;43337;52.070;4.508;2022-07-29T04:22:19;101813.78;;;16.14;62.80
49030;BME280;43337;52.070;4.508;2022-07-29T04:24:45;101815.34;;;16.18;62.35
49030;BME280;43337;52.070;4.508;2022-07-29T04:27:10;101791.34;;;16.02;62.57
49030;BME280;43337;52.070;4.508;2022-07-29T04:29:35;101812.84;;;16.15;62.42
49030;BME280;43337;52.070;4.508;2022-07-29T04:32:01;101788.63;;;16.03;62.33
49030;BME280;43337;52.070;4.508;2022-07-29T04:34:26;101805.88;;;16.12;62.40
49030;BME280;43337;52.070;4.508;2022-07-29T04:36:52;101823.16;;;16.21;62.42
49030;BME280;43337;52.070;4.508;2022-07-29T04:39:17;101819.88;;;16.16;62.55
49030;BME280;43337;52.070;4.508;2022-07-29T04:41:44;101805.97;;;16.10;62.32
49030;BME280;43337;52.070;4.508;2022-07-29T04:44:09;101815.66;;;16.11;62.51
49030;BME280;43337;52.070;4.508;2022-07-29T04:46:35;101820.03;;;16.13;62.57
49030;BME280;43337;52.070;4.508;2022-07-29T04:49:01;101775.44;;;15.83;62.36
49030;BME280;43337;52.070;4.508;2022-07-29T04:51:27;101804.72;;;16.00;62.42
49030;BME280;43337;52.070;4.508;2022-07-29T04:53:53;101780.72;;;15.84;62.71
49030;BME280;43337;52.070;4.508;2022-07-29T04:56:18;101822.69;;;16.13;62.40
49030;BME280;43337;52.070;4.508;2022-07-29T04:58:43;101819.31;;;16.09;62.67
49030;BME280;43337;52.070;4.508;2022-07-29T05:01:09;101801.06;;;16.03;62.61
49030;BME280;43337;52.070;4.508;2022-07-29T05:03:34;101825.50;;;16.09;62.71
49030;BME280;43337;52.070;4.508;2022-07-29T05:06:00;101811.81;;;16.00;62.74
49030;BME280;43337;52.070;4.508;2022-07-29T05:08:25;101803.28;;;15.93;62.83
49030;BME280;43337;52.070;4.508;2022-07-29T05:10:50;101801.63;;;15.91;62.78
49030;BME280;43337;52.070;4.508;2022-07-29T05:13:16;101833.59;;;16.06;62.74
49030;BME280;43337;52.070;4.508;2022-07-29T05:15:41;101787.16;;;15.79;62.98
49030;BME280;43337;52.070;4.508;2022-07-29T05:18:07;101791.25;;;15.86;62.97
49030;BME280;43337;52.070;4.508;2022-07-29T05:20:32;101823.94;;;16.05;63.16
49030;BME280;43337;52.070;4.508;2022-07-29T05:23:00;101815.25;;;16.02;63.12
49030;BME280;43337;52.070;4.508;2022-07-29T05:25:27;101780.84;;;15.81;63.20
49030;BME280;43337;52.070;4.508;2022-07-29T05:27:53;101834.16;;;16.13;63.10
49030;BME280;43337;52.070;4.508;2022-07-29T05:30:19;101827.38;;;16.07;63.29
49030;BME280;43337;52.070;4.508;2022-07-29T05:32:45;101828.72;;;16.16;63.08
49030;BME280;43337;52.070;4.508;2022-07-29T05:35:11;101814.97;;;16.08;63.25
49030;BME280;43337;52.070;4.508;2022-07-29T05:37:37;101837.88;;;16.28;63.39
49030;BME280;43337;52.070;4.508;2022-07-29T05:40:03;101802.28;;;16.13;63.25
49030;BME280;43337;52.070;4.508;2022-07-29T05:42:29;101801.91;;;16.21;63.11
49030;BME280;43337;52.070;4.508;2022-07-29T05:44:54;101851.63;;;16.53;63.08
49030;BME280;43337;52.070;4.508;2022-07-29T05:47:20;101834.66;;;16.56;62.95
49030;BME280;43337;52.070;4.508;2022-07-29T05:49:45;101801.06;;;16.38;62.92
49030;BME280;43337;52.070;4.508;2022-07-29T05:52:11;101818.69;;;16.56;62.93
49030;BME280;43337;52.070;4.508;2022-07-29T05:54:36;101826.72;;;16.72;63.02
49030;BME280;43337;52.070;4.508;2022-07-29T05:57:02;101814.38;;;16.71;63.07
49030;BME280;43337;52.070;4.508;2022-07-29T05:59:28;101826.75;;;16.89;62.63
49030;BME280;43337;52.070;4.508;2022-07-29T06:01:54;101830.66;;;16.99;62.75
49030;BME280;43337;52.070;4.508;2022-07-29T06:04:19;101804.34;;;16.93;62.57
49030;BME280;43337;52.070;4.508;2022-07-29T06:06:44;101812.72;;;17.03;62.55
49030;BME280;43337;52.070;4.508;2022-07-29T06:09:10;101810.91;;;17.03;62.41
49030;BME280;43337;52.070;4.508;2022-07-29T06:11:35;101826.22;;;17.16;62.21
49030;BME280;43337;52.070;4.508;2022-07-29T06:14:01;101849.88;;;17.38;62.35
49030;BME280;43337;52.070;4.508;2022-07-29T06:16:28;101856.06;;;17.54;62.05
49030;BME280;43337;52.070;4.508;2022-07-29T06:18:53;101839.22;;;17.69;61.90
49030;BME280;43337;52.070;4.508;2022-07-29T06:21:19;101841.50;;;17.77;61.85
49030;BME280;43337;52.070;4.508;2022-07-29T06:23:44;101833.81;;;17.87;61.13
49030;BME280;43337;52.070;4.508;2022-07-29T06:26:10;101840.44;;;17.95;61.08
49030;BME280;43337;52.070;4.508;2022-07-29T06:28:35;101834.66;;;18.03;60.80
49030;BME280;43337;52.070;4.508;2022-07-29T06:31:01;101854.03;;;18.21;60.30
49030;BME280;43337;52.070;4.508;2022-07-29T06:33:27;101849.31;;;18.26;60.03
49030;BME280;43337;52.070;4.508;2022-07-29T06:35:52;101838.31;;;18.16;60.18
49030;BME280;43337;52.070;4.508;2022-07-29T06:38:17;101825.16;;;18.13;59.99
49030;BME280;43337;52.070;4.508;2022-07-29T06:40:44;101852.47;;;18.33;59.92
49030;BME280;43337;52.070;4.508;2022-07-29T06:43:29;101853.44;;;18.32;59.90
49030;BME280;43337;52.070;4.508;2022-07-29T06:46:00;101866.13;;;18.42;59.77
49030;BME280;43337;52.070;4.508;2022-07-29T06:48:27;101846.84;;;18.37;59.47
49030;BME280;43337;52.070;4.508;2022-07-29T06:50:53;101844.41;;;18.34;59.52
49030;BME280;43337;52.070;4.508;2022-07-29T06:53:18;101824.66;;;18.22;59.63
49030;BME280;43337;52.070;4.508;2022-07-29T06:55:44;101850.97;;;18.43;59.46
49030;BME280;43337;52.070;4.508;2022-07-29T06:58:09;101853.66;;;18.43;59.52
49030;BME280;43337;52.070;4.508;2022-07-29T07:00:36;101854.91;;;18.51;59.38
49030;BME280;43337;52.070;4.508;2022-07-29T07:03:01;101830.63;;;18.42;59.68
49030;BME280;43337;52.070;4.508;2022-07-29T07:05:26;101861.69;;;18.57;59.57
49030;BME280;43337;52.070;4.508;2022-07-29T07:07:52;101868.81;;;18.72;59.48
49030;BME280;43337;52.070;4.508;2022-07-29T07:10:17;101841.91;;;18.61;58.99
49030;BME280;43337;52.070;4.508;2022-07-29T07:12:42;101850.03;;;18.74;58.95
49030;BME280;43337;52.070;4.508;2022-07-29T07:15:08;101879.25;;;18.91;58.84
49030;BME280;43337;52.070;4.508;2022-07-29T07:17:34;101834.81;;;18.76;58.62
49030;BME280;43337;52.070;4.508;2022-07-29T07:19:59;101843.28;;;18.83;58.46
49030;BME280;43337;52.070;4.508;2022-07-29T07:22:24;101833.00;;;18.76;58.58
49030;BME280;43337;52.070;4.508;2022-07-29T07:24:50;101880.28;;;19.03;58.59
49030;BME280;43337;52.070;4.508;2022-07-29T07:27:15;101871.00;;;18.94;58.53
49030;BME280;43337;52.070;4.508;2022-07-29T07:29:40;101871.81;;;18.96;58.52
49030;BME280;43337;52.070;4.508;2022-07-29T07:32:07;101852.13;;;18.83;58.36
49030;BME280;43337;52.070;4.508;2022-07-29T07:34:32;101855.41;;;18.88;58.55
49030;BME280;43337;52.070;4.508;2022-07-29T07:36:58;101887.06;;;19.09;58.40
49030;BME280;43337;52.070;4.508;2022-07-29T07:39:23;101863.78;;;18.96;58.52
49030;BME280;43337;52.070;4.508;2022-07-29T07:41:48;101869.13;;;18.96;58.88
49030;BME280;43337;52.070;4.508;2022-07-29T07:44:14;101870.34;;;18.91;58.71
49030;BME280;43337;52.070;4.508;2022-07-29T07:46:39;101870.94;;;18.96;58.88
49030;BME280;43337;52.070;4.508;2022-07-29T07:49:05;101883.63;;;19.07;58.62
49030;BME280;43337;52.070;4.508;2022-07-29T07:51:30;101869.81;;;19.00;58.81
49030;BME280;43337;52.070;4.508;2022-07-29T07:53:55;101871.41;;;19.02;58.85
49030;BME280;43337;52.070;4.508;2022-07-29T07:56:21;101870.84;;;18.97;59.08
49030;BME280;43337;52.070;4.508;2022-07-29T07:58:46;101870.66;;;19.00;59.29
49030;BME280;43337;52.070;4.508;2022-07-29T08:01:12;101848.53;;;18.98;59.32
49030;BME280;43337;52.070;4.508;2022-07-29T08:03:37;101878.28;;;19.21;59.28
49030;BME280;43337;52.070;4.508;2022-07-29T08:06:03;101854.84;;;19.12;59.32
49030;BME280;43337;52.070;4.508;2022-07-29T08:08:29;101858.44;;;19.25;59.41
49030;BME280;43337;52.070;4.508;2022-07-29T08:10:54;101848.34;;;19.30;59.52
49030;BME280;43337;52.070;4.508;2022-07-29T08:13:26;101831.47;;;19.30;59.24
49030;BME280;43337;52.070;4.508;2022-07-29T08:15:54;101823.25;;;19.33;59.32
49030;BME280;43337;52.070;4.508;2022-07-29T08:18:28;101863.75;;;19.68;59.32
49030;BME280;43337;52.070;4.508;2022-07-29T08:20:54;101872.06;;;19.78;59.03
49030;BME280;43337;52.070;4.508;2022-07-29T08:23:19;101856.69;;;19.81;59.17
49030;BME280;43337;52.070;4.508;2022-07-29T08:25:44;101856.06;;;19.90;59.09
49030;BME280;43337;52.070;4.508;2022-07-29T08:28:10;101876.25;;;20.09;58.62
49030;BME280;43337;52.070;4.508;2022-07-29T08:30:35;101864.59;;;20.10;58.73
49030;BME280;43337;52.070;4.508;2022-07-29T08:33:01;101868.56;;;20.17;58.23
49030;BME280;43337;52.070;4.508;2022-07-29T08:35:26;101884.69;;;20.30;58.18
49030;BME280;43337;52.070;4.508;2022-07-29T08:37:52;101895.72;;;20.38;57.91
49030;BME280;43337;52.070;4.508;2022-07-29T08:40:21;101888.03;;;20.46;57.98
49030;BME280;43337;52.070;4.508;2022-07-29T08:42:49;101862.00;;;20.35;57.55
49030;BME280;43337;52.070;4.508;2022-07-29T08:45:14;101892.47;;;20.60;57.55
49030;BME280;43337;52.070;4.508;2022-07-29T08:47:40;101871.59;;;20.52;57.53
49030;BME280;43337;52.070;4.508;2022-07-29T08:50:09;101875.66;;;20.58;57.21
49030;BME280;43337;52.070;4.508;2022-07-29T08:52:39;101837.59;;;20.40;57.26
49030;BME280;43337;52.070;4.508;2022-07-29T08:55:06;101894.88;;;20.77;56.82
49030;BME280;43337;52.070;4.508;2022-07-29T08:57:33;101880.84;;;20.73;56.77
49030;BME280;43337;52.070;4.508;2022-07-29T09:00:01;101898.06;;;20.82;56.56
49030;BME280;43337;52.070;4.508;2022-07-29T09:02:29;101876.34;;;20.74;56.57
49030;BME280;43337;52.070;4.508;2022-07-29T09:04:59;101879.44;;;20.81;57.17
49030;BME280;43337;52.070;4.508;2022-07-29T09:07:25;101876.44;;;20.85;56.97
49030;BME280;43337;52.070;4.508;2022-07-29T09:09:50;101889.41;;;21.04;56.64
49030;BME280;43337;52.070;4.508;2022-07-29T09:12:16;101886.19;;;21.12;57.01
49030;BME280;43337;52.070;4.508;2022-07-29T09:14:42;101872.06;;;21.10;56.42
49030;BME280;43337;52.070;4.508;2022-07-29T09:17:07;101876.78;;;21.19;56.01
49030;BME280;43337;52.070;4.508;2022-07-29T09:19:35;101864.22;;;21.19;55.90
49030;BME280;43337;52.070;4.508;2022-07-29T09:22:04;101882.78;;;21.35;55.82
49030;BME280;43337;52.070;4.508;2022-07-29T09:26:59;101885.88;;;21.42;55.52
49030;BME280;43337;52.070;4.508;2022-07-29T09:29:25;101884.91;;;21.43;56.07
49030;BME280;43337;52.070;4.508;2022-07-29T09:31:52;101881.34;;;21.55;56.56
49030;BME280;43337;52.070;4.508;2022-07-29T09:34:26;101884.53;;;21.73;56.69
49030;BME280;43337;52.070;4.508;2022-07-29T09:36:54;101889.28;;;21.93;56.49
49030;BME280;43337;52.070;4.508;2022-07-29T09:39:46;101874.31;;;22.15;56.27
49030;BME280;43337;52.070;4.508;2022-07-29T09:42:12;101852.38;;;22.21;55.64
49030;BME280;43337;52.070;4.508;2022-07-29T09:44:48;101872.13;;;22.55;55.82
49030;BME280;43337;52.070;4.508;2022-07-29T09:47:15;101860.31;;;22.58;54.95
49030;BME280;43337;52.070;4.508;2022-07-29T09:52:17;101859.16;;;22.84;54.93
49030;BME280;43337;52.070;4.508;2022-07-29T09:54:44;101874.97;;;23.11;54.67
49030;BME280;43337;52.070;4.508;2022-07-29T09:57:25;101882.41;;;23.30;54.12
49030;BME280;43337;52.070;4.508;2022-07-29T10:00:03;101875.81;;;23.46;54.04
49030;BME280;43337;52.070;4.508;2022-07-29T10:02:35;101837.94;;;23.37;53.65
49030;BME280;43337;52.070;4.508;2022-07-29T10:05:04;101880.22;;;23.69;53.19
49030;BME280;43337;52.070;4.508;2022-07-29T10:07:50;101879.81;;;23.85;53.52
49030;BME280;43337;52.070;4.508;2022-07-29T10:12:59;101865.94;;;24.01;53.17
49030;BME280;43337;52.070;4.508;2022-07-29T10:15:29;101877.53;;;24.12;52.74
49030;BME280;43337;52.070;4.508;2022-07-29T10:17:56;101875.31;;;24.18;52.10
49030;BME280;43337;52.070;4.508;2022-07-29T10:20:23;101871.59;;;24.30;51.58
49030;BME280;43337;52.070;4.508;2022-07-29T10:22:50;101835.91;;;24.17;51.12
49030;BME280;43337;52.070;4.508;2022-07-29T10:25:16;101875.56;;;24.47;50.20
49030;BME280;43337;52.070;4.508;2022-07-29T10:27:43;101870.38;;;24.55;50.44
49030;BME280;43337;52.070;4.508;2022-07-29T10:30:09;101852.53;;;24.54;49.82
49030;BME280;43337;52.070;4.508;2022-07-29T10:38:57;101867.66;;;24.97;49.15
49030;BME280;43337;52.070;4.508;2022-07-29T10:41:53;101869.28;;;25.09;47.90
49030;BME280;43337;52.070;4.508;2022-07-29T10:44:22;101864.09;;;25.17;48.30
49030;BME280;43337;52.070;4.508;2022-07-29T10:46:49;101845.66;;;25.13;47.80
49030;BME280;43337;52.070;4.508;2022-07-29T10:49:20;101836.88;;;25.11;48.31
49030;BME280;43337;52.070;4.508;2022-07-29T10:59:42;101861.72;;;25.64;46.36
49030;BME280;43337;52.070;4.508;2022-07-29T11:05:09;101838.72;;;25.70;45.94
49030;BME280;43337;52.070;4.508;2022-07-29T11:07:37;101867.06;;;25.95;46.42
49030;BME280;43337;52.070;4.508;2022-07-29T11:15:09;101858.41;;;26.20;44.87
49030;BME280;43337;52.070;4.508;2022-07-29T11:28:48;101859.41;;;26.58;42.88
49030;BME280;43337;52.070;4.508;2022-07-29T11:31:16;101854.28;;;26.65;42.57
49030;BME280;43337;52.070;4.508;2022-07-29T11:33:44;101842.06;;;26.61;41.70
49030;BME280;43337;52.070;4.508;2022-07-29T11:36:11;101854.13;;;26.76;42.18
49030;BME280;43337;52.070;4.508;2022-07-29T11:38:38;101852.38;;;26.85;41.86
49030;BME280;43337;52.070;4.508;2022-07-29T11:41:22;101857.22;;;26.91;41.30
49030;BME280;43337;52.070;4.508;2022-07-29T11:43:51;101844.78;;;26.98;40.51
49030;BME280;43337;52.070;4.508;2022-07-29T11:46:48;101856.88;;;27.03;40.15
49030;BME280;43337;52.070;4.508;2022-07-29T11:49:25;101839.09;;;27.01;40.38
49030;BME280;43337;52.070;4.508;2022-07-29T11:51:55;101855.72;;;27.16;40.14
49030;BME280;43337;52.070;4.508;2022-07-29T11:54:26;101855.81;;;27.24;39.87
49030;BME280;43337;52.070;4.508;2022-07-29T11:56:57;101848.97;;;27.30;39.36
49030;BME280;43337;52.070;4.508;2022-07-29T11:59:22;101855.31;;;27.38;38.61
49030;BME280;43337;52.070;4.508;2022-07-29T12:01:59;101851.16;;;27.44;39.02
49030;BME280;43337;52.070;4.508;2022-07-29T12:04:25;101847.00;;;27.49;39.34
49030;BME280;43337;52.070;4.508;2022-07-29T12:06:52;101831.78;;;27.48;38.52
49030;BME280;43337;52.070;4.508;2022-07-29T12:09:18;101825.19;;;27.51;38.48
49030;BME280;43337;52.070;4.508;2022-07-29T12:11:45;101848.75;;;27.68;38.04
49030;BME280;43337;52.070;4.508;2022-07-29T12:14:32;101850.06;;;27.64;38.80
49030;BME280;43337;52.070;4.508;2022-07-29T12:16:58;101854.47;;;27.65;38.23
49030;BME280;43337;52.070;4.508;2022-07-29T12:19:24;101835.81;;;27.44;38.47
49030;BME280;43337;52.070;4.508;2022-07-29T12:21:54;101857.28;;;27.46;38.33
49030;BME280;43337;52.070;4.508;2022-07-29T12:24:20;101861.03;;;27.35;38.90
49030;BME280;43337;52.070;4.508;2022-07-29T12:26:53;101870.72;;;27.28;39.02
49030;BME280;43337;52.070;4.508;2022-07-29T12:29:19;101846.91;;;27.14;39.72
49030;BME280;43337;52.070;4.508;2022-07-29T12:31:45;101858.50;;;27.34;39.74
49030;BME280;43337;52.070;4.508;2022-07-29T12:34:15;101849.72;;;27.49;39.78
49030;BME280;43337;52.070;4.508;2022-07-29T12:36:42;101836.19;;;27.49;38.96
49030;BME280;43337;52.070;4.508;2022-07-29T12:39:08;101837.22;;;27.66;38.99
49030;BME280;43337;52.070;4.508;2022-07-29T12:41:34;101858.28;;;27.90;38.92
49030;BME280;43337;52.070;4.508;2022-07-29T12:44:00;101859.72;;;27.94;38.52
49030;BME280;43337;52.070;4.508;2022-07-29T12:46:26;101862.81;;;27.99;38.47
49030;BME280;43337;52.070;4.508;2022-07-29T12:48:53;101856.31;;;28.10;39.06
49030;BME280;43337;52.070;4.508;2022-07-29T12:51:30;101856.69;;;28.15;38.02
49030;BME280;43337;52.070;4.508;2022-07-29T12:54:22;101835.44;;;28.03;38.70
49030;BME280;43337;52.070;4.508;2022-07-29T12:56:58;101856.81;;;28.32;38.56
49030;BME280;43337;52.070;4.508;2022-07-29T12:59:23;101845.97;;;28.32;38.23
49030;BME280;43337;52.070;4.508;2022-07-29T13:01:51;101849.19;;;28.45;38.04
49030;BME280;43337;52.070;4.508;2022-07-29T13:04:31;101849.88;;;28.47;37.46
49030;BME280;43337;52.070;4.508;2022-07-29T13:07:03;101845.16;;;28.49;37.64
49030;BME280;43337;52.070;4.508;2022-07-29T13:09:40;101839.03;;;28.47;36.92
49030;BME280;43337;52.070;4.508;2022-07-29T13:12:07;101847.63;;;28.42;37.01
49030;BME280;43337;52.070;4.508;2022-07-29T13:14:40;101851.06;;;28.44;37.07
49030;BME280;43337;52.070;4.508;2022-07-29T13:19:44;101853.28;;;28.49;36.09
49030;BME280;43337;52.070;4.508;2022-07-29T13:22:11;101849.19;;;28.45;36.39
49030;BME280;43337;52.070;4.508;2022-07-29T13:27:14;101852.50;;;28.57;36.58
49030;BME280;43337;52.070;4.508;2022-07-29T13:29:40;101833.25;;;28.42;36.79
49030;BME280;43337;52.070;4.508;2022-07-29T13:32:05;101851.25;;;28.51;36.63
49030;BME280;43337;52.070;4.508;2022-07-29T13:34:30;101821.28;;;28.35;36.73
49030;BME280;43337;52.070;4.508;2022-07-29T13:36:56;101826.72;;;28.35;36.38
49030;BME280;43337;52.070;4.508;2022-07-29T13:39:21;101837.03;;;28.49;36.84
49030;BME280;43337;52.070;4.508;2022-07-29T13:41:47;101852.06;;;28.69;36.69
49030;BME280;43337;52.070;4.508;2022-07-29T13:44:12;101846.66;;;28.69;36.44
49030;BME280;43337;52.070;4.508;2022-07-29T13:46:37;101861.47;;;28.83;36.10
49030;BME280;43337;52.070;4.508;2022-07-29T13:49:03;101837.88;;;28.76;36.16